Terminal Aerodrome Forecast
Issued by NWS Wilmington, OH

Current Version | Previous Version | Graphics & Text | Print | Product List | Glossary On
Versions: 1 2 3 4 5 6 7 8 9 10 11 12 13 14 15 16 17 18 19 20 21 22 23 24
527
FTUS41 KILN 231120
TAFCVG
TAF
KCVG 231120Z 2312/2418 00000KT P6SM BKN120
     FM231400 21004KT P6SM BKN100
     FM240000 VRB03KT P6SM FEW100
     FM240900 16004KT P6SM SKC
     FM241600 19012KT P6SM FEW100=

USA.gov is the U.S. government's official web portal to all federal, state and local government web resources and services.